Time;durP1;ratioP1;P1;durP2;ratioP2;P2;SDS_P1;SDS_P2;PMS_P1;PMS_P2;Temp;Humidity;BMP_temperature;BMP_pressure;BME280_temperature;BME280_humidity;BME280_pressure;Samples;Min_cycle;Max_cycle;Signal;HPM_P1;HPM_P2
2022/12/02 00:01:10;;;;;;;26.52;12.65;;;;;;;6.74;64.16;97683.72;4872404;28;20229;-75
2022/12/02 00:03:36;;;;;;;27.27;11.98;;;;;;;6.74;64.11;97683.72;4879071;28;20168;-75
2022/12/02 00:06:02;;;;;;;24.10;12.95;;;;;;;6.86;63.48;97681.28;4872348;28;20282;-76
2022/12/02 00:08:30;;;;;;;27.52;12.68;;;;;;;6.73;64.21;97676.94;4859138;28;20202;-75
2022/12/02 00:10:57;;;;;;;27.10;13.35;;;;;;;6.67;64.83;97672.63;4844448;29;20666;-75
2022/12/02 00:13:26;;;;;;;27.65;13.48;;;;;;;6.74;64.64;97673.38;4872894;28;20315;-75
2022/12/02 00:15:57;;;;;;;27.65;11.93;;;;;;;6.78;64.34;97663.41;4861227;29;20259;-76
2022/12/02 00:18:23;;;;;;;30.52;14.35;;;;;;;6.73;64.76;97667.41;4848013;29;20265;-76
2022/12/02 00:20:48;;;;;;;34.28;14.80;;;;;;;6.67;65.07;97662.28;4860583;29;20745;-75
2022/12/02 00:23:14;;;;;;;28.92;14.10;;;;;;;6.61;65.28;97665.66;4872330;28;20724;-75
2022/12/02 00:25:41;;;;;;;26.83;13.18;;;;;;;6.69;64.75;97665.44;4877930;28;20251;-75
2022/12/02 00:28:07;;;;;;;27.27;13.30;;;;;;;6.60;64.62;97661.47;4840017;28;20247;-75
2022/12/02 00:30:32;;;;;;;29.92;12.35;;;;;;;6.60;65.20;97656.31;4876305;28;20389;-76
2022/12/02 00:32:57;;;;;;;24.50;12.50;;;;;;;6.57;65.50;97653.13;4869714;28;20271;-76
2022/12/02 00:35:23;;;;;;;26.85;12.95;;;;;;;6.65;64.96;97653.91;4861029;28;20186;-75
2022/12/02 00:37:49;;;;;;;29.88;12.93;;;;;;;6.60;64.74;97651.13;4858931;28;20168;-75
2022/12/02 00:40:14;;;;;;;26.10;12.27;;;;;;;6.53;65.55;97651.19;4884203;28;20695;-76
2022/12/02 00:42:40;;;;;;;30.05;13.45;;;;;;;6.57;65.04;97649.78;4867638;28;20328;-76
2022/12/02 00:47:52;;;;;;;25.10;12.13;;;;;;;6.62;65.25;97638.81;4867834;28;20247;-75
2022/12/02 00:50:17;;;;;;;30.05;12.63;;;;;;;6.70;64.92;97639.34;4876070;28;20618;-76
2022/12/02 00:52:43;;;;;;;29.13;13.23;;;;;;;6.64;65.11;97647.94;4861249;28;20350;-75
2022/12/02 00:55:08;;;;;;;24.05;11.93;;;;;;;6.65;64.73;97635.78;4883948;28;20614;-75
2022/12/02 00:57:33;;;;;;;29.63;13.38;;;;;;;6.73;64.49;97631.19;4876480;28;20194;-75
2022/12/02 00:59:59;;;;;;;29.33;12.65;;;;;;;6.67;64.52;97636.41;4869610;28;20665;-75
2022/12/02 01:02:24;;;;;;;27.30;12.60;;;;;;;6.64;64.63;97631.63;4872028;28;20785;-75
2022/12/02 01:04:49;;;;;;;27.48;13.52;;;;;;;6.68;64.90;97625.03;4883069;28;20610;-76
2022/12/02 01:07:15;;;;;;;31.75;14.25;;;;;;;6.65;64.68;97628.84;4875378;28;20640;-75
2022/12/02 01:09:40;;;;;;;29.50;13.13;;;;;;;6.75;64.29;97612.84;4860817;29;20259;-76
2022/12/02 01:12:06;;;;;;;25.02;11.95;;;;;;;6.81;64.73;97619.00;4875262;28;20101;-75
2022/12/02 01:14:31;;;;;;;26.92;12.63;;;;;;;6.72;65.07;97628.81;4876332;28;20606;-75
2022/12/02 01:16:57;;;;;;;26.73;13.20;;;;;;;6.72;64.88;97624.41;4876607;28;20294;-75
2022/12/02 01:19:22;;;;;;;28.55;13.23;;;;;;;6.74;65.00;97616.44;4882327;28;20638;-75
2022/12/02 01:21:47;;;;;;;25.27;13.25;;;;;;;6.76;65.13;97617.03;4879995;28;20298;-75
2022/12/02 01:24:13;;;;;;;31.10;13.30;;;;;;;6.79;64.03;97616.59;4876471;28;20211;-75
2022/12/02 01:26:38;;;;;;;27.60;12.85;;;;;;;6.77;64.79;97623.78;4872819;28;20133;-75
2022/12/02 01:29:03;;;;;;;29.85;13.90;;;;;;;6.70;64.72;97626.41;4878153;28;20278;-75
2022/12/02 01:31:29;;;;;;;27.10;13.15;;;;;;;6.73;64.57;97622.59;4868438;28;20199;-76
2022/12/02 01:33:54;;;;;;;27.40;14.10;;;;;;;6.66;64.72;97619.28;4881251;28;20229;-75
2022/12/02 01:36:19;;;;;;;29.55;13.23;;;;;;;6.64;65.15;97616.88;4882862;28;20285;-75
2022/12/02 01:38:45;;;;;;;26.35;12.60;;;;;;;6.66;65.04;97619.28;4873646;28;20629;-75
2022/12/02 01:41:10;;;;;;;30.90;14.38;;;;;;;6.67;65.40;97618.28;4866347;28;20315;-75
2022/12/02 01:43:35;;;;;;;32.92;14.52;;;;;;;6.79;65.31;97624.38;4869130;28;20360;-75
2022/12/02 01:46:01;;;;;;;25.13;13.25;;;;;;;6.79;64.35;97626.19;4878330;28;20204;-75
2022/12/02 01:48:28;;;;;;;28.65;11.55;;;;;;;6.86;64.65;97624.34;4881185;28;20207;-75
2022/12/02 01:50:53;;;;;;;28.15;12.25;;;;;;;6.86;63.93;97619.94;4878172;28;20289;-76
2022/12/02 01:53:19;;;;;;;24.92;12.27;;;;;;;6.81;64.68;97617.19;4876161;28;20292;-75
2022/12/02 01:55:44;;;;;;;28.20;13.65;;;;;;;6.83;64.31;97625.53;4875047;28;20712;-75
2022/12/02 01:58:11;;;;;;;33.08;15.30;;;;;;;6.78;65.11;97629.75;4862861;28;20635;-75
2022/12/02 02:00:37;;;;;;;29.05;14.50;;;;;;;6.73;64.87;97625.19;4861989;29;20277;-76
2022/12/02 02:03:02;;;;;;;31.10;15.27;;;;;;;6.72;65.71;97632.16;4858981;29;20112;-75
2022/12/02 02:05:29;;;;;;;35.22;15.23;;;;;;;6.77;65.39;97628.97;4864045;28;20184;-75
2022/12/02 02:07:58;;;;;;;33.85;15.75;;;;;;;6.73;64.99;97627.78;4867483;28;20219;-76
2022/12/02 02:10:24;;;;;;;28.08;13.35;;;;;;;6.78;65.11;97622.78;4870555;28;20185;-75
2022/12/02 02:12:51;;;;;;;32.53;13.70;;;;;;;6.79;64.75;97623.59;4873824;28;20681;-75
2022/12/02 02:15:17;;;;;;;30.15;12.57;;;;;;;6.74;65.33;97619.03;4884361;28;20701;-75
2022/12/02 02:17:43;;;;;;;30.75;13.85;;;;;;;6.83;64.39;97617.78;4880791;28;20266;-76
2022/12/02 02:20:14;;;;;;;31.73;13.88;;;;;;;6.86;64.17;97614.75;4883745;28;20173;-75
2022/12/02 02:22:58;;;;;;;32.70;14.98;;;;;;;6.75;64.89;97616.25;4849558;28;20211;-75
2022/12/02 02:25:23;;;;;;;30.35;14.23;;;;;;;6.75;65.37;97616.25;4865534;28;20693;-75
2022/12/02 02:27:57;;;;;;;30.98;13.57;;;;;;;6.78;64.82;97620.19;4882535;28;20226;-75
2022/12/02 02:30:23;;;;;;;29.13;14.18;;;;;;;6.72;65.15;97613.28;4851993;29;20634;-75
2022/12/02 02:32:49;;;;;;;30.27;13.48;;;;;;;6.70;65.43;97605.72;4863201;29;20195;-75
2022/12/02 02:35:15;;;;;;;29.92;13.30;;;;;;;6.78;64.62;97611.63;4883894;28;20203;-75
2022/12/02 02:37:41;;;;;;;31.52;13.77;;;;;;;6.73;65.18;97599.31;4873004;28;20766;-75
2022/12/02 02:40:07;;;;;;;28.52;13.95;;;;;;;6.87;64.51;97605.19;4878579;28;20291;-75
2022/12/02 02:42:33;;;;;;;27.42;13.48;;;;;;;6.87;64.57;97600.03;4839162;28;20745;-75
2022/12/02 02:44:59;;;;;;;33.45;14.13;;;;;;;6.76;64.79;97598.91;4875328;28;20246;-75
2022/12/02 02:47:24;;;;;;;33.40;13.15;;;;;;;6.74;64.74;97598.31;4862554;29;20212;-76
2022/12/02 02:49:49;;;;;;;32.22;14.20;;;;;;;6.85;64.21;97592.47;4860368;28;20247;-75
2022/12/02 02:52:15;;;;;;;33.72;14.02;;;;;;;6.69;63.88;97587.81;4878660;28;20212;-75
2022/12/02 02:54:40;;;;;;;32.35;15.00;;;;;;;6.86;63.52;97594.06;4879142;28;20196;-75
2022/12/02 02:57:08;;;;;;;35.80;15.23;;;;;;;6.83;64.16;97586.72;4859172;29;20215;-75
2022/12/02 02:59:33;;;;;;;29.83;14.88;;;;;;;6.70;64.10;97586.78;4868191;28;20149;-75
2022/12/02 03:01:58;;;;;;;34.38;13.68;;;;;;;6.60;64.31;97584.69;4873992;28;20215;-75
2022/12/02 03:04:24;;;;;;;33.42;14.88;;;;;;;6.72;64.39;97583.00;4878727;28;20223;-76
2022/12/02 03:06:50;;;;;;;33.30;14.20;;;;;;;6.62;65.03;97580.09;4881676;28;20229;-75
2022/12/02 03:09:17;;;;;;;27.30;13.60;;;;;;;6.73;64.94;97582.00;4875567;28;20282;-75
2022/12/02 03:11:44;;;;;;;30.65;14.07;;;;;;;6.84;64.69;97582.34;4850634;29;20345;-76
2022/12/02 03:14:11;;;;;;;30.02;14.10;;;;;;;6.85;64.44;97579.53;4861073;29;20712;-75
2022/12/02 03:16:36;;;;;;;32.50;14.05;;;;;;;6.79;64.55;97579.59;4883185;28;20195;-76
2022/12/02 03:19:02;;;;;;;32.60;16.10;;;;;;;6.67;64.67;97576.88;4877957;28;20211;-75
2022/12/02 03:21:27;;;;;;;31.65;14.00;;;;;;;6.70;64.61;97573.84;4866812;29;20702;-76
2022/12/02 03:23:55;;;;;;;35.03;15.70;;;;;;;6.70;64.74;97568.69;4875249;28;20172;-75
2022/12/02 03:26:20;;;;;;;35.13;15.32;;;;;;;6.78;64.26;97570.22;4874219;28;20175;-75
2022/12/02 03:28:46;;;;;;;32.60;14.52;;;;;;;6.82;64.76;97572.19;4882428;28;20215;-75
2022/12/02 03:31:12;;;;;;;31.45;15.07;;;;;;;6.81;64.53;97568.00;4878333;28;20281;-75
2022/12/02 03:33:37;;;;;;;31.60;15.10;;;;;;;6.70;64.83;97571.25;4878289;28;20272;-76
2022/12/02 03:36:04;;;;;;;32.35;14.77;;;;;;;6.71;65.00;97565.09;4877640;28;20292;-75
2022/12/02 03:38:31;;;;;;;35.42;15.25;;;;;;;6.70;64.89;97561.72;4846944;29;20198;-75
2022/12/02 03:40:56;;;;;;;34.80;16.05;;;;;;;6.70;64.68;97553.16;4860166;29;20184;-75
2022/12/02 03:43:22;;;;;;;34.63;15.30;;;;;;;6.56;65.50;97555.03;4871131;28;20279;-76
2022/12/02 03:45:48;;;;;;;33.80;17.30;;;;;;;6.57;65.76;97554.81;4871572;28;20283;-75
2022/12/02 03:48:13;;;;;;;33.90;17.15;;;;;;;6.72;65.06;97551.94;4876365;28;20192;-75
2022/12/02 03:50:39;;;;;;;33.83;16.55;;;;;;;6.72;65.58;97553.75;4882292;28;20231;-75
2022/12/02 03:53:05;;;;;;;37.45;16.02;;;;;;;6.65;64.85;97555.56;4844102;29;20300;-75
2022/12/02 03:55:30;;;;;;;34.03;16.27;;;;;;;6.71;65.22;97559.91;4879584;28;20675;-75
2022/12/02 03:58:02;;;;;;;34.47;15.80;;;;;;;6.89;65.01;97557.41;4857023;29;20192;-75
2022/12/02 04:00:28;;;;;;;32.63;14.80;;;;;;;6.83;63.95;97553.06;4882355;28;20243;-75
2022/12/02 04:02:53;;;;;;;33.10;14.13;;;;;;;6.80;64.37;97548.31;4874413;28;20295;-75
2022/12/02 04:05:18;;;;;;;30.17;14.40;;;;;;;6.79;64.82;97551.91;4879513;28;20200;-75
2022/12/02 04:07:44;;;;;;;32.15;14.95;;;;;;;6.83;64.68;97537.53;4855807;28;20109;-75
2022/12/02 04:10:09;;;;;;;35.15;15.95;;;;;;;6.87;64.48;97530.94;4882186;28;20232;-75
2022/12/02 04:12:35;;;;;;;34.67;16.55;;;;;;;6.69;65.28;97536.06;4884253;28;20273;-75
2022/12/02 04:15:00;;;;;;;34.40;14.77;;;;;;;6.72;65.19;97530.47;4882007;28;20246;-75
2022/12/02 04:17:26;;;;;;;35.33;15.20;;;;;;;6.59;65.71;97526.16;4885140;28;20226;-76
2022/12/02 04:19:51;;;;;;;38.92;16.27;;;;;;;6.68;64.67;97530.09;4864160;29;20188;-75
2022/12/02 04:22:16;;;;;;;28.58;13.57;;;;;;;6.73;64.94;97537.22;4865377;28;20358;-75
2022/12/02 04:24:42;;;;;;;33.25;15.43;;;;;;;6.61;65.20;97534.50;4866498;28;20369;-75
2022/12/02 04:27:07;;;;;;;39.00;15.82;;;;;;;6.63;64.95;97531.72;4886339;28;20249;-75
2022/12/02 04:29:32;;;;;;;36.97;15.70;;;;;;;6.70;65.13;97522.09;4863058;28;20295;-75
2022/12/02 04:31:58;;;;;;;39.22;17.38;;;;;;;6.59;65.49;97528.75;4865212;29;20717;-75
2022/12/02 04:34:23;;;;;;;31.77;15.30;;;;;;;6.54;65.98;97528.59;4867013;29;20711;-77
2022/12/02 04:36:48;;;;;;;35.90;15.80;;;;;;;6.69;65.54;97515.34;4887251;28;20259;-77
2022/12/02 04:39:14;;;;;;;40.30;14.77;;;;;;;6.68;65.15;97513.75;4887202;28;20571;-77
2022/12/02 04:41:39;;;;;;;38.63;17.05;;;;;;;6.53;65.50;97521.84;4878105;28;20732;-77
2022/12/02 04:44:04;;;;;;;33.35;15.45;;;;;;;6.73;65.18;97516.50;4882042;28;20681;-77
2022/12/02 04:46:29;;;;;;;36.90;15.90;;;;;;;6.71;64.97;97508.94;4888413;28;20631;-77
2022/12/02 04:48:55;;;;;;;34.67;16.23;;;;;;;6.71;64.60;97508.16;4871934;28;20195;-77
2022/12/02 04:51:20;;;;;;;34.72;16.35;;;;;;;6.68;65.27;97501.63;4871685;28;20235;-77
2022/12/02 04:53:45;;;;;;;35.60;15.73;;;;;;;6.65;65.77;97514.19;4878395;28;20138;-77
2022/12/02 04:56:11;;;;;;;33.25;15.57;;;;;;;6.53;65.28;97507.09;4882783;28;20201;-77
2022/12/02 04:58:37;;;;;;;36.42;15.52;;;;;;;6.54;66.16;97505.31;4875056;28;20365;-75
2022/12/02 05:01:03;;;;;;;37.72;15.27;;;;;;;6.51;65.87;97495.38;4885029;28;20208;-74
2022/12/02 05:03:28;;;;;;;38.10;16.48;;;;;;;6.41;66.15;97500.22;4875097;28;20192;-75
2022/12/02 05:05:54;;;;;;;40.85;17.45;;;;;;;6.56;65.65;97491.16;4873792;28;20215;-74
2022/12/02 05:08:19;;;;;;;37.13;15.57;;;;;;;6.47;66.43;97486.47;4882380;28;20204;-74
2022/12/02 05:10:44;;;;;;;37.72;16.95;;;;;;;6.34;65.86;97489.91;4884909;28;20657;-74
2022/12/02 05:13:10;;;;;;;40.10;16.70;;;;;;;6.37;66.60;97497.25;4876920;28;20743;-77
2022/12/02 05:15:35;;;;;;;37.08;15.65;;;;;;;6.29;66.79;97489.75;4886370;28;20669;-77
2022/12/02 05:18:00;;;;;;;39.58;16.70;;;;;;;6.29;66.44;97490.56;4859197;29;20710;-78
2022/12/02 05:20:26;;;;;;;39.50;16.35;;;;;;;6.34;65.96;97490.72;4883549;28;20250;-77
2022/12/02 05:22:51;;;;;;;42.58;16.05;;;;;;;6.17;67.01;97487.06;4869186;28;20159;-76
2022/12/02 05:25:16;;;;;;;39.20;17.05;;;;;;;6.26;66.53;97487.59;4872296;29;20177;-77
2022/12/02 05:27:42;;;;;;;42.25;17.85;;;;;;;6.07;67.79;97482.31;4883278;28;20279;-77
2022/12/02 05:30:08;;;;;;;41.88;16.30;;;;;;;6.13;67.29;97480.69;4857056;29;20382;-77
2022/12/02 05:32:33;;;;;;;42.50;17.23;;;;;;;6.07;68.00;97478.97;4885848;28;20190;-77
2022/12/02 05:34:58;;;;;;;47.35;18.40;;;;;;;6.27;66.88;97471.88;4862646;29;20192;-77
2022/12/02 05:37:24;;;;;;;45.08;17.38;;;;;;;6.29;67.05;97469.06;4885962;28;20526;-76
2022/12/02 05:39:49;;;;;;;40.92;17.90;;;;;;;6.29;66.69;97474.22;4879602;28;20232;-77
2022/12/02 05:42:18;;;;;;;44.08;18.17;;;;;;;6.38;66.64;97473.78;4877904;28;20172;-77
2022/12/02 05:44:43;;;;;;;40.97;17.42;;;;;;;6.40;66.45;97468.41;4853396;29;20275;-77
2022/12/02 05:47:11;;;;;;;43.83;17.75;;;;;;;6.07;67.14;97479.75;4886512;28;20653;-77
2022/12/02 05:49:37;;;;;;;47.13;19.00;;;;;;;6.17;67.28;97481.88;4859826;29;20211;-77
2022/12/02 05:52:12;;;;;;;43.15;17.95;;;;;;;6.29;67.25;97476.81;4885550;28;20195;-76
2022/12/02 05:54:37;;;;;;;43.03;19.05;;;;;;;5.97;67.77;97477.59;4884240;28;20290;-76
2022/12/02 05:57:05;;;;;;;43.10;18.13;;;;;;;6.24;67.68;97479.22;4878782;28;20295;-76
2022/12/02 05:59:31;;;;;;;44.78;19.13;;;;;;;6.28;66.55;97476.03;4863037;28;20278;-76
2022/12/02 06:01:57;;;;;;;41.75;16.77;;;;;;;6.18;67.18;97479.06;4883260;28;20295;-77
2022/12/02 06:04:31;;;;;;;51.00;19.77;;;;;;;6.46;67.04;97475.31;4873161;28;20259;-77
2022/12/02 06:07:00;;;;;;;40.75;16.90;;;;;;;6.47;66.21;97481.28;4885540;28;20204;-76
2022/12/02 06:09:31;;;;;;;50.65;17.58;;;;;;;6.54;66.00;97476.84;4859306;28;20307;-76
2022/12/02 06:11:56;;;;;;;45.47;18.08;;;;;;;6.51;66.01;97478.06;4870409;28;20655;-76
2022/12/02 06:14:24;;;;;;;44.60;17.30;;;;;;;6.49;66.14;97474.88;4880850;28;20330;-77
2022/12/02 06:17:13;;;;;;;53.10;17.88;;;;;;;6.60;65.74;97470.03;4885437;28;20251;-76
2022/12/02 06:19:44;;;;;;;46.50;17.85;;;;;;;6.56;65.98;97469.66;4862944;29;20203;-76
2022/12/02 06:22:26;;;;;;;44.20;18.35;;;;;;;6.57;65.95;97471.25;4852589;28;20240;-76
2022/12/02 06:24:54;;;;;;;44.42;18.95;;;;;;;6.22;67.05;97474.28;4864709;29;20211;-77
2022/12/02 06:27:21;;;;;;;50.75;20.35;;;;;;;6.16;67.08;97468.16;4865738;28;20284;-76
2022/12/02 06:29:51;;;;;;;42.97;18.77;;;;;;;6.08;67.74;97473.56;4865153;29;20279;-76
2022/12/02 06:32:21;;;;;;;51.55;19.75;;;;;;;6.30;67.08;97468.06;4867796;29;20607;-76
2022/12/02 06:34:51;;;;;;;50.55;20.10;;;;;;;6.39;67.01;97469.38;4848458;29;20274;-76
2022/12/02 06:37:36;;;;;;;48.78;20.42;;;;;;;6.45;66.73;97465.97;4883599;28;20168;-76
2022/12/02 06:40:44;;;;;;;54.72;23.40;;;;;;;6.46;66.68;97474.50;4867135;29;20297;-77
2022/12/02 06:43:15;;;;;;;47.65;19.60;;;;;;;6.51;66.79;97472.09;4861117;28;20210;-76
2022/12/02 06:45:42;;;;;;;56.83;23.13;;;;;;;6.38;67.26;97473.78;4841169;29;20258;-77
2022/12/02 06:48:35;;;;;;;50.28;20.67;;;;;;;6.63;66.29;97467.03;4878658;28;20243;-76
2022/12/02 06:51:14;;;;;;;47.83;18.05;;;;;;;6.64;66.59;97463.44;4867253;29;20177;-76
2022/12/02 06:53:40;;;;;;;47.63;19.13;;;;;;;6.36;66.86;97465.44;4846406;29;20249;-76
2022/12/02 06:56:16;;;;;;;51.08;19.60;;;;;;;6.48;66.81;97470.72;4880424;28;20322;-76
2022/12/02 06:58:53;;;;;;;50.22;19.88;;;;;;;6.29;67.33;97469.06;4862659;29;20626;-76
2022/12/02 07:01:31;;;;;;;52.60;20.20;;;;;;;6.33;67.71;97475.41;4866789;28;20147;-76
2022/12/02 07:04:04;;;;;;;54.08;21.55;;;;;;;6.38;67.35;97470.41;4869851;28;20207;-76
2022/12/02 07:06:31;;;;;;;52.25;20.67;;;;;;;6.35;66.90;97478.56;4884507;28;20426;-76
2022/12/02 07:08:58;;;;;;;56.05;18.98;;;;;;;5.94;68.32;97472.03;4850170;28;20208;-76
2022/12/02 07:11:51;;;;;;;46.47;19.83;;;;;;;6.27;67.73;97469.28;4878296;28;20281;-77
2022/12/02 07:14:39;;;;;;;52.35;19.08;;;;;;;6.00;69.28;97468.66;4872105;28;20284;-76
2022/12/02 07:17:13;;;;;;;57.25;21.25;;;;;;;6.32;67.75;97474.63;4884076;28;20215;-76
2022/12/02 07:19:42;;;;;;;57.15;19.70;;;;;;;6.21;68.33;97474.50;4862851;28;20304;-76
2022/12/02 07:22:16;;;;;;;55.08;20.35;;;;;;;6.34;67.74;97474.38;4881939;28;20200;-76
2022/12/02 07:24:43;;;;;;;57.22;23.38;;;;;;;6.03;68.96;97465.63;4864550;28;20236;-77
2022/12/02 07:27:24;;;;;;;52.45;21.00;;;;;;;6.07;68.35;97469.41;4879264;28;20263;-76
2022/12/02 07:29:50;;;;;;;56.88;23.00;;;;;;;6.09;68.49;97469.19;4847276;29;20173;-76
2022/12/02 07:32:15;;;;;;;61.05;22.45;;;;;;;5.77;69.79;97472.50;4882519;28;20296;-76
2022/12/02 07:34:40;;;;;;;63.67;22.55;;;;;;;5.91;69.11;97467.25;4866011;29;20195;-76
2022/12/02 07:37:06;;;;;;;55.33;21.48;;;;;;;5.97;68.79;97458.72;4868110;29;20219;-76
2022/12/02 07:39:31;;;;;;;70.10;22.88;;;;;;;6.06;68.86;97464.44;4865747;28;20314;-77
2022/12/02 07:41:56;;;;;;;59.70;25.00;;;;;;;6.02;68.79;97463.28;4871344;28;20760;-76
2022/12/02 07:44:22;;;;;;;66.53;23.27;;;;;;;6.08;68.97;97458.03;4872389;28;20345;-76
2022/12/02 07:46:47;;;;;;;62.80;22.88;;;;;;;6.06;68.68;97454.88;4881751;28;20208;-77
2022/12/02 07:49:12;;;;;;;60.80;24.20;;;;;;;6.09;68.30;97459.63;4874445;28;20275;-76
2022/12/02 07:51:38;;;;;;;58.95;21.98;;;;;;;6.15;68.26;97458.81;4871276;28;20673;-77
2022/12/02 07:54:03;;;;;;;60.80;21.70;;;;;;;6.04;69.14;97462.06;4888215;28;20661;-76
2022/12/02 07:56:28;;;;;;;64.60;22.52;;;;;;;6.19;68.47;97459.97;4886732;28;20519;-76
2022/12/02 07:58:54;;;;;;;67.03;22.15;;;;;;;5.86;68.76;97454.97;4880448;28;20738;-77
2022/12/02 08:01:19;;;;;;;60.60;23.35;;;;;;;5.96;69.64;97454.53;4870139;28;20639;-76
2022/12/02 08:03:45;;;;;;;63.00;23.25;;;;;;;6.06;68.90;97454.09;4890460;28;20634;-77
2022/12/02 08:06:10;;;;;;;69.93;24.05;;;;;;;6.03;69.02;97444.94;4888126;28;20258;-76
2022/12/02 08:08:35;;;;;;;63.28;23.50;;;;;;;6.16;67.93;97455.22;4886815;28;20660;-76
2022/12/02 08:11:01;;;;;;;64.43;23.67;;;;;;;6.14;68.53;97451.28;4887690;28;20242;-76
2022/12/02 08:13:26;;;;;;;65.07;22.85;;;;;;;6.29;68.48;97453.53;4889252;28;20257;-76
2022/12/02 08:15:51;;;;;;;60.92;21.80;;;;;;;6.24;68.10;97461.13;4878735;28;20160;-76
2022/12/02 08:18:17;;;;;;;62.50;21.98;;;;;;;6.12;68.00;97451.47;4886295;28;20662;-77
2022/12/02 08:20:42;;;;;;;62.47;22.13;;;;;;;6.00;69.15;97451.34;4885142;28;20356;-77
2022/12/02 08:23:07;;;;;;;68.65;22.05;;;;;;;5.98;68.76;97445.59;4861157;28;20201;-76
2022/12/02 08:25:33;;;;;;;64.90;24.40;;;;;;;5.84;69.51;97453.59;4890409;28;20199;-76
2022/12/02 08:27:58;;;;;;;57.45;22.13;;;;;;;6.01;69.19;97449.53;4884551;28;20708;-77
2022/12/02 08:30:23;;;;;;;64.03;21.85;;;;;;;6.07;69.34;97445.34;4887750;28;20281;-76
2022/12/02 08:32:49;;;;;;;70.53;24.95;;;;;;;5.99;69.23;97447.16;4886615;28;20674;-76
2022/12/02 08:35:14;;;;;;;69.10;22.77;;;;;;;6.04;69.01;97449.13;4877302;28;20244;-76
2022/12/02 08:37:40;;;;;;;67.35;23.45;;;;;;;6.29;68.60;97441.44;4872422;29;20611;-76
2022/12/02 08:40:06;;;;;;;62.33;22.80;;;;;;;6.11;68.86;97451.69;4851337;29;20193;-76
2022/12/02 08:42:31;;;;;;;65.18;22.00;;;;;;;6.18;68.90;97437.69;4873168;28;20663;-77
2022/12/02 08:44:57;;;;;;;66.15;24.15;;;;;;;6.38;68.12;97441.97;4887738;28;20294;-77
2022/12/02 08:47:22;;;;;;;63.60;22.38;;;;;;;6.41;68.12;97441.53;4889267;28;20101;-76
2022/12/02 08:49:49;;;;;;;66.93;23.88;;;;;;;6.43;67.75;97446.50;4889267;28;20699;-77
2022/12/02 08:52:14;;;;;;;62.35;22.02;;;;;;;6.51;68.03;97449.63;4889001;28;20203;-76
2022/12/02 08:54:42;;;;;;;56.00;22.25;;;;;;;6.49;67.64;97443.84;4841828;29;20238;-76
2022/12/02 08:57:07;;;;;;;57.25;20.42;;;;;;;6.59;67.58;97437.41;4883612;28;20702;-77
2022/12/02 08:59:33;;;;;;;67.65;23.92;;;;;;;6.61;67.16;97436.19;4867830;29;20250;-77
2022/12/02 09:01:58;;;;;;;65.05;23.05;;;;;;;6.54;67.39;97438.03;4886448;28;20673;-76
2022/12/02 09:04:23;;;;;;;63.17;22.98;;;;;;;6.60;67.67;97432.03;4886820;28;20227;-77
2022/12/02 09:06:49;;;;;;;60.78;23.08;;;;;;;6.47;67.92;97440.69;4885718;28;20514;-76
2022/12/02 09:09:14;;;;;;;60.63;22.10;;;;;;;6.32;67.85;97435.84;4886383;28;20378;-76
2022/12/02 09:11:40;;;;;;;64.43;21.73;;;;;;;6.13;68.15;97439.34;4885900;28;20700;-76
2022/12/02 09:14:05;;;;;;;54.17;19.17;;;;;;;6.28;68.45;97441.63;4886434;28;20215;-76
2022/12/02 09:16:30;;;;;;;57.10;21.88;;;;;;;5.99;69.31;97436.81;4886030;28;20282;-77
2022/12/02 09:18:57;;;;;;;54.88;20.92;;;;;;;6.17;68.52;97436.13;4885567;28;20250;-77
2022/12/02 09:21:22;;;;;;;60.03;21.15;;;;;;;6.12;69.33;97448.88;4885438;28;20275;-80
2022/12/02 09:23:48;;;;;;;59.20;22.10;;;;;;;6.11;68.13;97442.13;4885993;28;20720;-76
2022/12/02 09:26:13;;;;;;;57.45;21.75;;;;;;;6.27;68.39;97442.63;4885677;28;20286;-76
2022/12/02 09:28:38;;;;;;;59.28;22.30;;;;;;;6.32;68.47;97440.19;4881033;28;20267;-77
2022/12/02 09:31:04;;;;;;;57.45;21.25;;;;;;;6.46;67.99;97439.13;4885281;28;20271;-76
2022/12/02 09:33:29;;;;;;;55.42;20.92;;;;;;;6.38;68.03;97436.78;4884771;28;20234;-76
2022/12/02 09:35:54;;;;;;;51.78;19.20;;;;;;;6.03;68.59;97433.81;4885330;28;20250;-76
2022/12/02 09:38:20;;;;;;;58.60;19.40;;;;;;;6.26;68.51;97431.50;4885270;28;20234;-76
2022/12/02 09:40:45;;;;;;;43.55;19.08;;;;;;;6.28;68.60;97439.03;4884422;28;20357;-76
2022/12/02 09:43:11;;;;;;;61.80;18.95;;;;;;;6.15;68.83;97438.13;4885255;28;20278;-77
2022/12/02 09:45:36;;;;;;;55.05;19.63;;;;;;;6.28;68.35;97431.28;4863392;28;20191;-76
2022/12/02 09:48:02;;;;;;;52.15;20.42;;;;;;;6.24;67.83;97430.09;4854916;29;20231;-76
2022/12/02 09:50:27;;;;;;;56.28;22.00;;;;;;;6.28;68.03;97431.28;4870159;28;20274;-75
2022/12/02 09:52:56;;;;;;;64.28;19.52;;;;;;;6.27;68.68;97432.28;4853284;29;20180;-76
2022/12/02 09:55:22;;;;;;;50.35;21.10;;;;;;;6.35;67.74;97425.06;4849112;29;20216;-76
2022/12/02 09:57:47;;;;;;;62.70;19.35;;;;;;;6.13;68.58;97429.78;4865521;29;20660;-76
2022/12/02 10:00:18;;;;;;;54.00;19.60;;;;;;;6.32;68.55;97435.84;4883872;28;20203;-76
2022/12/02 10:02:53;;;;;;;49.67;21.10;;;;;;;6.37;68.55;97440.34;4852388;28;20168;-76
2022/12/02 10:05:21;;;;;;;58.10;21.20;;;;;;;6.26;68.41;97425.53;4884212;28;20198;-76
2022/12/02 10:07:47;;;;;;;53.10;19.02;;;;;;;6.25;68.52;97426.53;4868324;29;20133;-76
2022/12/02 10:10:15;;;;;;;57.15;22.15;;;;;;;6.13;68.69;97423.81;4851529;28;20864;-76
2022/12/02 10:12:41;;;;;;;58.63;21.13;;;;;;;6.11;68.99;97429.19;4883959;28;20282;-76
2022/12/02 10:15:09;;;;;;;59.60;19.25;;;;;;;6.28;68.68;97426.13;4883998;28;20264;-76
2022/12/02 10:17:34;;;;;;;58.90;21.42;;;;;;;6.33;68.29;97415.94;4883874;28;20169;-76
2022/12/02 10:20:00;;;;;;;53.20;18.35;;;;;;;6.28;67.79;97416.56;4883331;28;20275;-76
2022/12/02 10:22:25;;;;;;;57.10;21.52;;;;;;;6.38;68.11;97414.28;4883960;28;20199;-76
2022/12/02 10:24:50;;;;;;;56.33;19.38;;;;;;;6.32;68.23;97409.97;4867441;28;20271;-76
2022/12/02 10:27:27;;;;;;;59.72;21.55;;;;;;;6.46;67.91;97413.25;4881975;28;20278;-75
2022/12/02 10:29:53;;;;;;;54.03;19.50;;;;;;;6.13;68.18;97409.09;4865380;29;20203;-76
2022/12/02 10:32:21;;;;;;;45.90;16.95;;;;;;;6.24;67.94;97415.41;4883691;28;20143;-76
2022/12/02 10:35:05;;;;;;;52.00;20.00;;;;;;;6.27;68.34;97409.81;4867473;28;20214;-76
2022/12/02 10:37:32;;;;;;;46.38;17.13;;;;;;;6.07;68.75;97406.59;4883508;28;20717;-76
2022/12/02 10:40:19;;;;;;;46.95;17.75;;;;;;;6.29;67.62;97405.22;4883134;28;20172;-76
2022/12/02 10:42:45;;;;;;;47.92;19.60;;;;;;;6.05;68.13;97399.03;4867598;28;20203;-76
2022/12/02 10:45:21;;;;;;;42.72;15.73;;;;;;;6.16;67.55;97398.34;4875141;28;20195;-76
2022/12/02 10:47:48;;;;;;;37.63;14.43;;;;;;;6.05;67.67;97396.44;4867500;28;20287;-76
2022/12/02 10:50:16;;;;;;;45.83;16.00;;;;;;;6.09;68.00;97389.06;4882826;28;20177;-76
2022/12/02 10:52:50;;;;;;;36.75;16.05;;;;;;;6.21;68.03;97389.97;4883249;28;20286;-76
2022/12/02 10:55:16;;;;;;;41.97;16.13;;;;;;;6.20;67.34;97388.38;4876804;28;20215;-76
2022/12/02 10:57:43;;;;;;;41.15;16.67;;;;;;;6.11;67.82;97389.63;4876603;28;20393;-76
2022/12/02 11:00:28;;;;;;;42.13;15.65;;;;;;;6.25;67.40;97382.56;4882971;28;20187;-76
2022/12/02 11:02:58;;;;;;;33.35;13.70;;;;;;;6.16;67.63;97379.47;4866953;28;20380;-75
2022/12/02 11:05:32;;;;;;;40.78;15.15;;;;;;;6.18;67.67;97386.00;4882840;28;20708;-76
2022/12/02 11:08:20;;;;;;;38.10;14.85;;;;;;;6.17;67.37;97379.25;4851622;28;20283;-76
2022/12/02 11:10:48;;;;;;;34.55;13.27;;;;;;;6.15;67.71;97380.44;4882340;28;20219;-75
2022/12/02 11:13:16;;;;;;;37.30;15.45;;;;;;;6.21;67.59;97379.63;4851487;29;20133;-76
2022/12/02 11:15:43;;;;;;;39.85;15.55;;;;;;;6.10;67.67;97370.75;4868712;28;20199;-75
2022/12/02 11:18:31;;;;;;;31.77;14.90;;;;;;;6.26;67.93;97371.25;4868213;28;20220;-76
2022/12/02 11:21:00;;;;;;;31.85;13.85;;;;;;;6.35;67.83;97362.97;4867584;28;20402;-76
2022/12/02 11:23:30;;;;;;;32.42;14.63;;;;;;;6.36;68.10;97356.81;4880776;28;20295;-76
2022/12/02 11:25:55;;;;;;;40.45;14.70;;;;;;;6.14;68.25;97364.16;4883026;28;20231;-76
2022/12/02 11:28:26;;;;;;;31.00;13.05;;;;;;;6.38;67.76;97354.81;4877024;28;20170;-76